createdAt,value
2016-05-22T00:00:53.110Z,65.33
2016-05-22T00:01:53.159Z,65.33
2016-05-22T00:02:53.224Z,65.49
2016-05-22T00:03:53.243Z,65.42
2016-05-22T00:04:53.276Z,65.42
2016-05-22T00:05:53.310Z,66.19
2016-05-22T00:06:53.360Z,65.33
2016-05-22T00:07:53.393Z,65.3
2016-05-22T00:08:53.444Z,65.52
2016-05-22T00:09:53.478Z,65.68
2016-05-22T00:10:53.511Z,65.88
2016-05-22T00:11:53.562Z,65.78
2016-05-22T00:12:53.595Z,66.06
2016-05-22T00:13:54.144Z,65.88
2016-05-22T00:14:53.742Z,65.78
2016-05-22T00:15:53.556Z,65.78
2016-05-22T00:16:53.778Z,65.58
2016-05-22T00:17:53.858Z,65.68
2016-05-22T00:18:53.861Z,65.78
2016-05-22T00:19:53.895Z,65.78
2016-05-22T00:20:53.928Z,65.58
2016-05-22T00:21:54.010Z,65.58
2016-05-22T00:22:54.013Z,65.78
2016-05-22T00:23:54.061Z,65.68
2016-05-22T00:24:54.097Z,65.58
2016-05-22T00:25:54.146Z,65.2
2016-05-22T00:26:54.179Z,65.49
2016-05-22T00:27:54.230Z,65.2
2016-05-22T00:28:54.294Z,65.68
2016-05-22T00:29:54.313Z,65.88
2016-05-22T00:30:54.346Z,65.88
2016-05-22T00:31:54.412Z,65.58
2016-05-22T00:32:54.274Z,65.88
2016-05-22T00:33:54.463Z,65.68
2016-05-22T00:34:54.513Z,65.78
2016-05-22T00:35:54.391Z,65.68
2016-05-22T00:36:54.582Z,65.78
2016-05-22T00:37:54.631Z,65.68
2016-05-22T00:38:54.681Z,65.11
2016-05-22T00:39:54.715Z,65.11
2016-05-22T00:40:54.748Z,65.2
2016-05-22T00:41:54.798Z,65.11
2016-05-22T00:42:55.160Z,65.88
2016-05-22T00:43:54.881Z,65.88
2016-05-22T00:44:54.916Z,66.06
2016-05-22T00:45:54.965Z,65.88
2016-05-22T00:46:54.998Z,66.16
2016-05-22T00:47:55.049Z,66.16
2016-05-22T00:48:55.083Z,65.78
2016-05-22T00:49:55.116Z,65.78
2016-05-22T00:50:55.197Z,65.78
2016-05-22T00:51:55.216Z,65.74
2016-05-22T00:52:55.265Z,66.16
2016-05-22T00:53:55.174Z,66.16
2016-05-22T00:54:55.349Z,66.06
2016-05-22T00:55:55.383Z,66.22
2016-05-22T00:56:55.416Z,66.13
2016-05-22T00:57:55.575Z,66.13
2016-05-22T00:58:55.500Z,66.32
2016-05-22T00:59:55.550Z,66.13
2016-05-22T01:00:55.568Z,66.22
2016-05-22T01:01:55.618Z,66.32
2016-05-22T01:02:55.651Z,65.84
2016-05-22T01:03:55.701Z,66.13
2016-05-22T01:04:55.751Z,66.32
2016-05-22T01:05:55.784Z,66.03
2016-05-22T01:06:55.834Z,66.03
2016-05-22T01:07:55.868Z,66.32
2016-05-22T01:08:55.918Z,66.41
2016-05-22T01:09:55.967Z,66.03
2016-05-22T01:10:55.985Z,66.22
2016-05-22T01:11:56.035Z,66.32
2016-05-22T01:12:56.225Z,66.22
2016-05-22T01:13:55.978Z,66.13
2016-05-22T01:14:56.153Z,66.61
2016-05-22T01:15:56.201Z,66.22
2016-05-22T01:16:56.252Z,66.51
2016-05-22T01:17:56.301Z,66.32
2016-05-22T01:18:56.319Z,66.41
2016-05-22T01:19:56.369Z,66.41
2016-05-22T01:20:56.434Z,66.61
2016-05-22T01:21:56.437Z,66.51
2016-05-22T01:22:56.487Z,66.51
2016-05-22T01:23:56.520Z,66.89
2016-05-22T01:24:56.570Z,66.89
2016-05-22T01:25:56.603Z,66.89
2016-05-22T01:26:56.653Z,66.22
2016-05-22T01:27:56.734Z,66.89
2016-05-22T01:28:56.736Z,67.08
2016-05-22T01:29:56.771Z,66.99
2016-05-22T01:30:56.648Z,66.8
2016-05-22T01:31:56.869Z,66.8
2016-05-22T01:32:56.904Z,66.99
2016-05-22T01:33:56.938Z,66.99
2016-05-22T01:34:57.018Z,66.7
2016-05-22T01:35:57.021Z,66.99
2016-05-22T01:36:57.055Z,66.99
2016-05-22T01:37:57.136Z,67.08
2016-05-22T01:38:57.154Z,66.8
2016-05-22T01:39:57.173Z,66.8
2016-05-22T01:40:57.222Z,66.8
2016-05-22T01:41:57.304Z,66.7
2016-05-22T01:42:57.384Z,66.8
2016-05-22T01:43:57.340Z,66.32
2016-05-22T01:44:57.389Z,66.99
2016-05-22T01:45:57.439Z,66.86
2016-05-22T01:46:57.457Z,66.8
2016-05-22T01:47:57.523Z,66.8
2016-05-22T01:48:57.556Z,67.37
2016-05-22T01:49:57.590Z,66.8
2016-05-22T01:50:57.640Z,66.57
2016-05-22T01:51:57.673Z,67.18
2016-05-22T01:52:57.739Z,67.37
2016-05-22T01:53:57.757Z,67.24
2016-05-22T01:54:57.792Z,67.24
2016-05-22T01:55:57.872Z,66.96
2016-05-22T01:56:57.875Z,67.14
2016-05-22T01:57:58.221Z,67.34
2016-05-22T01:58:57.958Z,67.63
2016-05-22T01:59:58.024Z,67.24
2016-05-22T02:00:58.042Z,67.53
2016-05-22T02:01:58.075Z,67.72
2016-05-22T02:02:58.125Z,67.72
2016-05-22T02:03:58.174Z,67.72
2016-05-22T02:04:58.209Z,67.53
2016-05-22T02:05:58.243Z,67.43
2016-05-22T02:06:58.292Z,67.43
2016-05-22T02:07:58.327Z,67.53
2016-05-22T02:08:58.360Z,67.53
2016-05-22T02:09:58.410Z,67.82
2016-05-22T02:10:58.318Z,67.91
2016-05-22T02:11:58.477Z,67.91
2016-05-22T02:12:58.605Z,67.43
2016-05-22T02:13:58.562Z,67.82
2016-05-22T02:14:58.595Z,67.72
2016-05-22T02:15:58.645Z,67.34
2016-05-22T02:16:58.695Z,68.1
2016-05-22T02:17:58.728Z,68.58
2016-05-22T02:18:58.778Z,68.87
2016-05-22T02:19:58.656Z,68.68
2016-05-22T02:20:58.846Z,68.68
2016-05-22T02:21:58.895Z,69.7
2016-05-22T02:22:58.976Z,69.31
2016-05-22T02:23:58.869Z,68.49
2016-05-22T02:24:59.075Z,69.06
2016-05-22T02:25:59.109Z,69.12
2016-05-22T02:26:59.175Z,69.31
2016-05-22T02:27:59.145Z,69.31
2016-05-22T02:28:59.227Z,69.12
2016-05-22T02:29:59.245Z,69.02
2016-05-22T02:30:59.263Z,69.02
2016-05-22T02:31:59.313Z,69.6
2016-05-22T02:32:59.394Z,69.31
2016-05-22T02:33:59.381Z,69.98
2016-05-22T02:34:59.461Z,69.7
2016-05-22T02:35:59.292Z,69.7
2016-05-22T02:36:59.591Z,69.79
2016-05-22T02:37:59.610Z,69.21
2016-05-22T02:38:59.644Z,69.02
2016-05-22T02:39:59.632Z,69.12
2016-05-22T02:40:59.665Z,69.21
2016-05-22T02:41:59.762Z,69.21
2016-05-22T02:42:59.749Z,69.31
2016-05-22T02:43:59.798Z,69.12
2016-05-22T02:44:59.831Z,69.31
2016-05-22T02:45:59.866Z,69.21
2016-05-22T02:46:59.900Z,69.31
2016-05-22T02:48:00.059Z,69.12
2016-05-22T02:48:59.827Z,69.02
2016-05-22T02:50:00.033Z,69.21
2016-05-22T02:51:00.098Z,69.02
2016-05-22T02:52:00.101Z,69.12
2016-05-22T02:53:00.150Z,68.93
2016-05-22T02:54:00.184Z,69.12
2016-05-22T02:55:00.250Z,69.02
2016-05-22T02:56:00.267Z,68.84
2016-05-22T02:57:00.317Z,69.02
2016-05-22T02:58:00.226Z,69.21
2016-05-22T02:59:00.400Z,69.31
2016-05-22T03:00:00.435Z,69.12
2016-05-22T03:01:00.469Z,68.64
2016-05-22T03:02:00.534Z,68.93
2016-05-22T03:03:00.614Z,68.64
2016-05-22T03:04:00.616Z,68.84
2016-05-22T03:05:00.636Z,68.55
2016-05-22T03:06:00.732Z,68.55
2016-05-22T03:07:00.766Z,68.84
2016-05-22T03:08:00.769Z,68.55
2016-05-22T03:09:00.881Z,68.74
2016-05-22T03:10:00.837Z,68.64
2016-05-22T03:11:00.885Z,68.74
2016-05-22T03:12:00.951Z,68.74
2016-05-22T03:13:00.798Z,69.02
2016-05-22T03:14:01.035Z,69.12
2016-05-22T03:15:01.037Z,69.12
2016-05-22T03:16:00.978Z,69.21
2016-05-22T03:17:01.121Z,69.02
2016-05-22T03:18:01.186Z,69.21
2016-05-22T03:19:01.252Z,69.5
2016-05-22T03:20:01.270Z,69.31
2016-05-22T03:21:01.288Z,69.95
2016-05-22T03:22:01.337Z,69.37
2016-05-22T03:23:01.465Z,69.56
2016-05-22T03:24:01.406Z,70.14
2016-05-22T03:25:01.455Z,69.85
2016-05-22T03:26:01.505Z,69.76
2016-05-22T03:27:01.367Z,69.95
2016-05-22T03:28:02.010Z,70.04
2016-05-22T03:29:01.606Z,70.52
2016-05-22T03:30:01.657Z,70.61
2016-05-22T03:31:01.754Z,70.33
2016-05-22T03:32:01.804Z,70.33
2016-05-22T03:33:01.886Z,70.61
2016-05-22T03:34:01.982Z,70.33
2016-05-22T03:35:02.005Z,70.33
2016-05-22T03:36:02.050Z,70.33
2016-05-22T03:37:02.141Z,70.42
2016-05-22T03:38:02.203Z,70.33
2016-05-22T03:39:02.216Z,70.33
2016-05-22T03:40:02.259Z,70.33
2016-05-22T03:41:02.311Z,70.52
2016-05-22T03:42:02.365Z,70.23
2016-05-22T03:43:02.574Z,70.14
2016-05-22T03:44:02.442Z,70.04
2016-05-22T03:45:02.494Z,70.04
2016-05-22T03:46:02.530Z,70.23
2016-05-22T03:47:02.565Z,70.23
2016-05-22T03:48:02.616Z,70.23
2016-05-22T03:49:02.652Z,70.14
2016-05-22T03:50:02.686Z,70.23
2016-05-22T03:51:02.721Z,70.33
2016-05-22T03:52:02.646Z,70.33
2016-05-22T03:53:02.805Z,69.85
2016-05-22T03:54:02.855Z,69.85
2016-05-22T03:55:02.905Z,69.85
2016-05-22T03:56:03.001Z,70.42
2016-05-22T03:57:02.988Z,70.04
2016-05-22T03:58:03.038Z,69.7
2016-05-22T03:59:03.040Z,69.85
2016-05-22T04:00:03.090Z,69.89
2016-05-22T04:01:03.124Z,69.89
2016-05-22T04:02:03.236Z,70.27
2016-05-22T04:03:03.223Z,70.27
2016-05-22T04:04:03.272Z,70.27
2016-05-22T04:05:03.290Z,69.89
2016-05-22T04:06:03.434Z,70.04
2016-05-22T04:07:03.375Z,70.46
2016-05-22T04:08:03.440Z,70.36
2016-05-22T04:09:03.551Z,70.56
2016-05-22T04:10:03.429Z,70.36
2016-05-22T04:11:03.541Z,70.27
2016-05-22T04:12:03.576Z,70.65
2016-05-22T04:13:03.969Z,69.79
2016-05-22T04:14:03.690Z,69.98
2016-05-22T04:15:03.755Z,70.46
2016-05-22T04:16:03.804Z,69.98
2016-05-22T04:17:03.792Z,69.79
2016-05-22T04:18:03.810Z,69.6
2016-05-22T04:19:03.876Z,69.41
2016-05-22T04:20:03.941Z,69.7
2016-05-22T04:21:03.958Z,69.7
2016-05-22T04:22:04.009Z,69.02
2016-05-22T04:23:03.902Z,68.84
2016-05-22T04:24:04.108Z,69.25
2016-05-22T04:25:04.095Z,69.35
2016-05-22T04:26:04.176Z,69.64
2016-05-22T04:27:04.194Z,68.49
2016-05-22T04:28:04.259Z,68.39
2016-05-22T04:29:04.309Z,68.58
2016-05-22T04:30:04.374Z,68.29
2016-05-22T04:31:04.345Z,68.23
2016-05-22T04:32:04.254Z,68.62
2016-05-22T04:33:04.429Z,68.13
2016-05-22T04:34:04.307Z,67.85
2016-05-22T04:35:04.559Z,67.56
2016-05-22T04:36:04.546Z,67.66
2016-05-22T04:37:04.580Z,67.47
2016-05-22T04:38:04.489Z,67.66
2016-05-22T04:39:04.679Z,67.11
2016-05-22T04:40:04.713Z,67.31
2016-05-22T04:41:04.606Z,66.93
2016-05-22T04:42:04.656Z,66.83
2016-05-22T04:43:05.034Z,66.54
2016-05-22T04:44:04.880Z,66.48
2016-05-22T04:45:04.914Z,66.74
2016-05-22T04:46:04.995Z,66.29
2016-05-22T04:47:05.013Z,66.48
2016-05-22T04:48:05.047Z,65.52
2016-05-22T04:49:05.128Z,65.05
2016-05-22T04:50:05.021Z,65.05
2016-05-22T04:51:05.228Z,64.47
2016-05-22T04:52:05.214Z,63.99
2016-05-22T04:53:05.264Z,63.89
2016-05-22T04:54:05.297Z,64.18
2016-05-22T04:55:05.347Z,64.09
2016-05-22T04:56:05.225Z,63.99
2016-05-22T04:57:05.430Z,64.18
2016-05-22T04:58:05.308Z,63.89
2016-05-22T04:59:05.499Z,63.51
2016-05-22T05:00:05.595Z,62.93
2016-05-22T05:01:05.582Z,62.84
2016-05-22T05:02:05.475Z,63.03
2016-05-22T05:03:05.712Z,63.42
2016-05-22T05:04:08.074Z,63.32
2016-05-22T05:05:05.749Z,62.55
2016-05-22T05:06:05.799Z,62.55
2016-05-22T05:07:05.832Z,61.88
2016-05-22T05:08:05.710Z,62.55
2016-05-22T05:09:05.916Z,62.55
2016-05-22T05:10:05.949Z,61.72
2016-05-22T05:11:06.016Z,61.72
2016-05-22T05:12:05.893Z,61.24
2016-05-22T05:13:06.082Z,61.02
2016-05-22T05:14:06.132Z,61.34
2016-05-22T05:15:06.167Z,61.72
2016-05-22T05:16:06.200Z,61.82
2016-05-22T05:17:06.251Z,61.43
2016-05-22T05:18:06.300Z,61.05
2016-05-22T05:19:06.333Z,61.43
2016-05-22T05:20:06.383Z,61.05
2016-05-22T05:21:06.417Z,61.15
2016-05-22T05:22:06.467Z,60.76
2016-05-22T05:23:06.517Z,60.96
2016-05-22T05:24:06.567Z,60.38
2016-05-22T05:25:06.583Z,60.28
2016-05-22T05:26:06.617Z,60.31
2016-05-22T05:27:06.653Z,60.09
2016-05-22T05:28:06.702Z,60.57
2016-05-22T05:29:06.767Z,60.31
2016-05-22T05:30:06.801Z,60.22
2016-05-22T05:31:06.835Z,60.22
2016-05-22T05:32:06.743Z,60.6
2016-05-22T05:33:06.919Z,60.03
2016-05-22T05:34:06.952Z,60.22
2016-05-22T05:35:07.033Z,60.12
2016-05-22T05:36:07.036Z,60.12
2016-05-22T05:37:06.930Z,60.41
2016-05-22T05:38:07.119Z,60.5
2016-05-22T05:39:07.169Z,60.31
2016-05-22T05:40:07.249Z,60.12
2016-05-22T05:41:07.112Z,60.31
2016-05-22T05:42:07.302Z,60.12
2016-05-22T05:43:07.352Z,59.93
2016-05-22T05:44:07.385Z,59.93
2016-05-22T05:45:07.934Z,59.93
2016-05-22T05:46:07.531Z,59.45
2016-05-22T05:47:07.581Z,59.45
2016-05-22T05:48:07.661Z,59.74
2016-05-22T05:49:07.680Z,59.55
2016-05-22T05:50:07.620Z,59.36
2016-05-22T05:51:07.685Z,60.22
2016-05-22T05:52:07.703Z,59.93
2016-05-22T05:53:07.754Z,59.36
2016-05-22T05:54:07.865Z,59.93
2016-05-22T05:55:07.868Z,59.74
2016-05-22T05:56:07.870Z,58.97
2016-05-22T05:57:07.920Z,59.16
2016-05-22T05:58:08.064Z,59.36
2016-05-22T05:59:08.035Z,59.16
2016-05-22T06:00:08.038Z,59.26
2016-05-22T06:01:08.072Z,59.26
2016-05-22T06:02:08.136Z,59.48
2016-05-22T06:03:08.030Z,59.36
2016-05-22T06:04:08.204Z,59.48
2016-05-22T06:05:08.255Z,59.09
2016-05-22T06:06:08.319Z,59
2016-05-22T06:07:08.338Z,59.09
2016-05-22T06:08:08.372Z,59.19
2016-05-22T06:09:08.421Z,59.29
2016-05-22T06:10:08.471Z,58.91
2016-05-22T06:11:08.505Z,58.81
2016-05-22T06:12:08.538Z,58.71
2016-05-22T06:13:09.526Z,58.91
2016-05-22T06:14:08.622Z,58.91
2016-05-22T06:15:08.672Z,58.91
2016-05-22T06:16:08.721Z,58.71
2016-05-22T06:17:08.787Z,58.04
2016-05-22T06:18:08.790Z,58.14
2016-05-22T06:19:08.840Z,58.14
2016-05-22T06:20:08.873Z,57.95
2016-05-22T06:21:08.937Z,58.04
2016-05-22T06:22:08.956Z,58.17
2016-05-22T06:23:09.006Z,57.97
2016-05-22T06:24:09.056Z,58.26
2016-05-22T06:25:09.090Z,57.68
2016-05-22T06:26:08.967Z,57.59
2016-05-22T06:27:09.172Z,57.59
2016-05-22T06:28:09.082Z,57.97
2016-05-22T06:29:09.256Z,57.3
2016-05-22T06:30:09.290Z,57.01
2016-05-22T06:31:09.356Z,57.3
2016-05-22T06:32:09.375Z,57.21
2016-05-22T06:33:09.422Z,56.63
2016-05-22T06:34:09.457Z,57.01
2016-05-22T06:35:09.522Z,57.11
2016-05-22T06:36:09.541Z,57.3
2016-05-22T06:37:09.434Z,56.24
2016-05-22T06:38:09.624Z,56.46
2016-05-22T06:39:09.688Z,56.53
2016-05-22T06:40:09.723Z,55.79
2016-05-22T06:41:09.757Z,56.18
2016-05-22T06:42:09.807Z,55.89
2016-05-22T06:43:10.294Z,56.08
2016-05-22T06:44:09.875Z,55.6
2016-05-22T06:45:09.924Z,55.79
2016-05-22T06:46:10.004Z,55.99
2016-05-22T06:47:10.008Z,55.69
2016-05-22T06:48:10.042Z,55.79
2016-05-22T06:49:09.935Z,55.51
2016-05-22T06:50:10.141Z,55.99
2016-05-22T06:51:11.003Z,55.53
2016-05-22T06:52:10.223Z,55.63
2016-05-22T06:53:10.258Z,55.73
2016-05-22T06:54:10.995Z,55.05
2016-05-22T06:55:10.873Z,55.15
2016-05-22T06:56:11.392Z,55.15
2016-05-22T06:57:10.753Z,55.53
2016-05-22T06:58:10.615Z,54.86
2016-05-22T06:59:10.509Z,54.99
2016-05-22T07:00:11.730Z,54.79
2016-05-22T07:01:10.609Z,54.12
2016-05-22T07:02:10.970Z,54.41
2016-05-22T07:03:10.691Z,54.12
2016-05-22T07:04:11.788Z,53.54
2016-05-22T07:05:10.775Z,53.35
2016-05-22T07:06:11.199Z,53.54
2016-05-22T07:07:10.858Z,53.64
2016-05-22T07:08:10.939Z,52.8
2016-05-22T07:09:10.942Z,52.99
2016-05-22T07:10:12.366Z,53.28
2016-05-22T07:11:11.072Z,52.99
2016-05-22T07:12:11.075Z,53.28
2016-05-22T07:13:10.968Z,52.89
2016-05-22T07:14:11.190Z,52.99
2016-05-22T07:15:11.302Z,52.51
2016-05-22T07:16:11.320Z,52.51
2016-05-22T07:17:11.541Z,52.12
2016-05-22T07:18:11.748Z,51.26
2016-05-22T07:19:12.157Z,51.35
2016-05-22T07:20:11.409Z,51.74
2016-05-22T07:21:11.693Z,51.55
2016-05-22T07:22:12.368Z,51.45
2016-05-22T07:23:14.012Z,51.96
2016-05-22T07:24:12.701Z,50.9
2016-05-22T07:25:11.657Z,50.81
2016-05-22T07:26:11.691Z,51.09
2016-05-22T07:27:11.678Z,50.71
2016-05-22T07:28:13.853Z,50.51
2016-05-22T07:29:11.823Z,49.94
2016-05-22T07:30:13.061Z,49.36
2016-05-22T07:31:13.251Z,49.46
2016-05-22T07:32:13.145Z,49.55
2016-05-22T07:33:13.178Z,49.87
2016-05-22T07:34:12.899Z,49.58
2016-05-22T07:35:12.574Z,49.19
2016-05-22T07:36:12.218Z,48.81
2016-05-22T07:37:13.002Z,48.71
2016-05-22T07:38:12.817Z,48.03
2016-05-22T07:39:13.319Z,47.56
2016-05-22T07:40:12.853Z,47.56
2016-05-22T07:41:13.512Z,47.75
2016-05-22T07:42:12.687Z,46.88
2016-05-22T07:43:12.455Z,47.46
2016-05-22T07:44:12.693Z,47.58
2016-05-22T07:45:12.835Z,47.39
2016-05-22T07:46:13.932Z,47.46
2016-05-22T07:47:13.590Z,47.49
2016-05-22T07:48:12.953Z,47.29
2016-05-22T07:49:13.113Z,46.81
2016-05-22T07:50:12.974Z,46.52
2016-05-22T07:51:13.164Z,46.71
2016-05-22T07:52:13.526Z,46.71
2016-05-22T07:53:14.123Z,46.73
2016-05-22T07:54:15.844Z,46.23
2016-05-22T07:55:14.066Z,46.25
2016-05-22T07:56:14.271Z,46.23
2016-05-22T07:57:13.539Z,46.25
2016-05-22T07:58:13.606Z,46.25
2016-05-22T07:59:13.873Z,46.15
2016-05-22T08:00:14.078Z,45.77
2016-05-22T08:01:13.832Z,45.68
2016-05-22T08:02:13.663Z,46.25
2016-05-22T08:03:14.181Z,45.48
2016-05-22T08:04:13.371Z,45
2016-05-22T08:05:14.234Z,44.23
2016-05-22T08:06:14.080Z,44.52
2016-05-22T08:07:13.488Z,43.55
2016-05-22T08:08:13.600Z,43.67
2016-05-22T08:09:13.978Z,43.96
2016-05-22T08:10:14.091Z,43.96
2016-05-22T08:11:14.266Z,43.58
2016-05-22T08:12:14.768Z,43.58
2016-05-22T08:13:14.521Z,43.48
2016-05-22T08:14:13.757Z,43.87
2016-05-22T08:15:13.838Z,43.67
2016-05-22T08:16:14.574Z,43.6
2016-05-22T08:17:14.249Z,43.98
2016-05-22T08:18:15.065Z,43.21
2016-05-22T08:19:14.708Z,42.83
2016-05-22T08:20:14.023Z,42.35
2016-05-22T08:21:14.276Z,42.15
2016-05-22T08:22:17.701Z,42.56
2016-05-22T08:23:14.485Z,42.66
2016-05-22T08:24:14.050Z,42.56
2016-05-22T08:25:14.240Z,42.56
2016-05-22T08:26:14.977Z,42.27
2016-05-22T08:27:14.339Z,42.18
2016-05-22T08:28:15.092Z,41.88
2016-05-22T08:29:15.814Z,41.5
2016-05-22T08:30:15.254Z,41.3
2016-05-22T08:31:15.787Z,41.3
2016-05-22T08:32:18.275Z,41.88
2016-05-22T08:33:14.683Z,41.88
2016-05-22T08:34:14.656Z,41.98
2016-05-22T08:35:15.064Z,41.98
2016-05-22T08:36:16.083Z,41.81
2016-05-22T08:37:15.616Z,41.42
2016-05-22T08:38:15.119Z,41.42
2016-05-22T08:39:16.902Z,41.81
2016-05-22T08:40:15.469Z,41.33
2016-05-22T08:41:15.674Z,40.45
2016-05-22T08:42:15.739Z,40.75
2016-05-22T08:43:16.241Z,40.36
2016-05-22T08:44:15.557Z,39.87
2016-05-22T08:45:15.185Z,39.59
2016-05-22T08:46:15.188Z,39.59
2016-05-22T08:47:15.627Z,39.87
2016-05-22T08:48:15.318Z,39.9
2016-05-22T08:49:16.617Z,39.87
2016-05-22T08:50:16.151Z,40.67
2016-05-22T08:51:15.529Z,40.28
2016-05-22T08:52:15.593Z,40.67
2016-05-22T08:53:16.299Z,40.77
2016-05-22T08:54:16.146Z,40.19
2016-05-22T08:55:15.665Z,39.92
2016-05-22T08:56:16.995Z,39.62
2016-05-22T08:57:16.295Z,39.43
2016-05-22T08:58:16.782Z,39.16
2016-05-22T08:59:15.769Z,39.34
2016-05-22T09:00:15.834Z,38.87
2016-05-22T09:01:17.008Z,38
2016-05-22T09:02:16.839Z,38
2016-05-22T09:03:17.076Z,38.29
2016-05-22T09:04:16.001Z,38.68
2016-05-22T09:05:16.660Z,38.39
2016-05-22T09:06:16.584Z,38.68
2016-05-22T09:07:16.322Z,38.87
2016-05-22T09:08:16.028Z,38.78
2016-05-22T09:09:16.327Z,38.2
2016-05-22T09:10:17.814Z,37.71
2016-05-22T09:11:16.645Z,37.71
2016-05-22T09:12:16.804Z,37.42
2016-05-22T09:13:16.432Z,37.7
2016-05-22T09:14:17.247Z,38
2016-05-22T09:15:21.203Z,37.88
2016-05-22T09:16:16.549Z,37.88
2016-05-22T09:17:16.895Z,38.08
2016-05-22T09:18:16.632Z,38.28
2016-05-22T09:19:16.698Z,38.66
2016-05-22T09:20:16.716Z,38.46
2016-05-22T09:21:16.765Z,37.04
2016-05-22T09:22:17.862Z,35.58
2016-05-22T09:23:16.865Z,35.29
2016-05-22T09:24:16.915Z,34.62
2016-05-22T09:25:16.792Z,34.52
2016-05-22T09:26:17.357Z,34.23
2016-05-22T09:27:17.048Z,34.71
2016-05-22T09:28:17.253Z,33.55
2016-05-22T09:29:17.178Z,33.17
2016-05-22T09:30:17.212Z,33.55
2016-05-22T09:31:17.231Z,33.65
2016-05-22T09:32:17.265Z,33.26
2016-05-22T09:33:17.314Z,33.17
2016-05-22T09:34:17.363Z,32.78
2016-05-22T09:35:17.412Z,32.97
2016-05-22T09:36:17.462Z,32.87
2016-05-22T09:37:17.339Z,32.68
2016-05-22T09:38:17.545Z,33.17
2016-05-22T09:39:17.595Z,33.45
2016-05-22T09:40:17.661Z,33.45
2016-05-22T09:41:17.678Z,33.36
2016-05-22T09:42:17.744Z,33.17
2016-05-22T09:43:17.778Z,32.78
2016-05-22T09:44:17.843Z,33.28
2016-05-22T09:45:17.861Z,32.89
2016-05-22T09:46:17.911Z,33.07
2016-05-22T09:47:17.945Z,32.97
2016-05-22T09:48:17.994Z,33.57
2016-05-22T09:49:18.044Z,33.47
2016-05-22T09:50:17.922Z,33.67
2016-05-22T09:51:18.159Z,33.37
2016-05-22T09:52:18.177Z,33.18
2016-05-22T09:53:18.227Z,32.7
2016-05-22T09:54:18.261Z,32.41
2016-05-22T09:55:18.326Z,32.6
2016-05-22T09:56:18.360Z,32.41
2016-05-22T09:57:18.393Z,32.31
2016-05-22T09:58:18.834Z,32.21
2016-05-22T09:59:18.493Z,32.12
2016-05-22T10:00:18.558Z,32.31
2016-05-22T10:01:18.451Z,32.12
2016-05-22T10:02:18.657Z,31.63
2016-05-22T10:03:18.675Z,31.54
2016-05-22T10:04:19.584Z,31.46
2016-05-22T10:05:19.259Z,31.65
2016-05-22T10:06:18.809Z,31.65
2016-05-22T10:07:19.453Z,31.16
2016-05-22T10:08:18.939Z,31.56
2016-05-22T10:09:18.942Z,31.56
2016-05-22T10:10:19.006Z,31.84
2016-05-22T10:11:19.634Z,31.65
2016-05-22T10:12:19.122Z,31.07
2016-05-22T10:13:19.139Z,30.98
2016-05-22T10:14:19.174Z,30.98
2016-05-22T10:15:19.224Z,30.98
2016-05-22T10:16:19.288Z,31.07
2016-05-22T10:17:19.167Z,30.88
2016-05-22T10:18:19.356Z,30.78
2016-05-22T10:19:19.406Z,30.79
2016-05-22T10:20:19.455Z,30.89
2016-05-22T10:21:19.505Z,31.09
2016-05-22T10:22:19.383Z,30.89
2016-05-22T10:23:19.635Z,30.51
2016-05-22T10:24:19.482Z,30.89
2016-05-22T10:25:19.688Z,30.69
2016-05-22T10:26:19.753Z,30.51
2016-05-22T10:27:19.787Z,30.52
2016-05-22T10:28:19.837Z,30.71
2016-05-22T10:29:19.886Z,29.94
2016-05-22T10:30:19.935Z,29.76
2016-05-22T10:31:20.000Z,29.85
2016-05-22T10:32:20.035Z,29.95
2016-05-22T10:33:20.085Z,29.47
2016-05-22T10:34:19.978Z,29.66
2016-05-22T10:35:20.184Z,29.58
2016-05-22T10:36:20.234Z,29.87
2016-05-22T10:37:20.283Z,28.41
2016-05-22T10:38:20.332Z,28.33
2016-05-22T10:39:20.397Z,28.04
2016-05-22T10:40:20.447Z,28.63
2016-05-22T10:41:20.544Z,28.34
2016-05-22T10:42:20.562Z,27.58
2016-05-22T10:43:21.174Z,27
2016-05-22T10:44:20.692Z,26.23
2016-05-22T10:45:20.757Z,25.96
2016-05-22T10:46:20.792Z,24.82
2016-05-22T10:47:20.840Z,23.86
2016-05-22T10:48:20.749Z,22.73
2016-05-22T10:49:20.955Z,20.61
2016-05-22T10:50:21.021Z,20.04
2016-05-22T10:51:21.071Z,19.87
2016-05-22T10:52:21.135Z,18.52
2016-05-22T10:53:21.185Z,17.27
2016-05-22T10:54:21.250Z,15.82
2016-05-22T10:55:21.347Z,14.16
2016-05-22T10:56:21.225Z,14.07
2016-05-22T10:57:21.414Z,13.2
2016-05-22T10:58:21.479Z,12.33
2016-05-22T10:59:21.545Z,11.95
2016-05-22T11:00:21.595Z,10.98
2016-05-22T11:01:21.691Z,10.3
2016-05-22T11:02:21.568Z,9.71
2016-05-22T11:03:21.774Z,9.13
2016-05-22T11:04:21.871Z,8.54
2016-05-22T11:05:21.905Z,7.95
2016-05-22T11:06:21.954Z,7.76
2016-05-22T11:07:22.019Z,6.87
2016-05-22T11:08:22.084Z,6.28
2016-05-22T11:09:22.150Z,6.68
2016-05-22T11:10:22.199Z,6.59
2016-05-22T11:11:22.281Z,6.18
2016-05-22T11:12:22.377Z,5.79
2016-05-22T11:13:22.676Z,5.19
2016-05-22T11:14:22.460Z,5.78
2016-05-22T11:15:22.510Z,5.78
2016-05-22T11:16:22.575Z,6.17
2016-05-22T11:17:22.641Z,6.76
2016-05-22T11:18:22.705Z,6.76
2016-05-22T11:19:22.802Z,6.47
2016-05-22T11:20:22.819Z,5.87
2016-05-22T11:21:22.901Z,5.77
2016-05-22T11:22:22.950Z,6.07
2016-05-22T11:23:23.000Z,5.77
2016-05-22T11:24:23.081Z,5.87
2016-05-22T11:25:23.130Z,6.07
2016-05-22T11:26:23.211Z,6.18
2016-05-22T11:27:23.277Z,5.79
2016-05-22T11:28:23.341Z,4.69
2016-05-22T11:29:23.423Z,4.6
2016-05-22T11:30:23.456Z,4.69
2016-05-22T11:31:23.521Z,4.7
2016-05-22T11:32:23.602Z,4
2016-05-22T11:33:23.652Z,4.1
2016-05-22T11:34:23.702Z,4.3
2016-05-22T11:35:23.782Z,4.5
2016-05-22T11:36:23.848Z,4.4
2016-05-22T11:37:23.913Z,4.1
2016-05-22T11:38:23.822Z,4.3
2016-05-22T11:39:24.028Z,4.1
2016-05-22T11:40:24.108Z,3.6
2016-05-22T11:41:24.173Z,3.4
2016-05-22T11:42:24.239Z,3.8
2016-05-22T11:43:24.726Z,4.69
2016-05-22T11:44:24.353Z,4.1
2016-05-22T11:45:24.434Z,4.4
2016-05-22T11:46:24.484Z,3.4
2016-05-22T11:47:24.550Z,3.41
2016-05-22T11:48:24.630Z,3.61
2016-05-22T11:49:24.726Z,3.11
2016-05-22T11:50:24.761Z,3.11
2016-05-22T11:51:24.825Z,3.3
2016-05-22T11:52:24.906Z,3
2016-05-22T11:53:24.941Z,3
2016-05-22T11:54:25.021Z,3.5
2016-05-22T11:55:25.086Z,4.29
2016-05-22T11:56:25.152Z,4.49
2016-05-22T11:57:25.232Z,3.39
2016-05-22T11:58:25.688Z,3.99
2016-05-22T11:59:25.378Z,4.29
2016-05-22T12:00:25.412Z,4.28
2016-05-22T12:01:25.477Z,4.38
2016-05-22T12:02:25.683Z,4.98
2016-05-22T12:03:25.593Z,5.18
2016-05-22T12:04:25.517Z,5.27
2016-05-22T12:05:25.723Z,5.57
2016-05-22T12:06:25.803Z,5.38
2016-05-22T12:07:25.868Z,4.79
2016-05-22T12:08:25.778Z,4.49
2016-05-22T12:09:25.998Z,4.58
2016-05-22T12:10:26.111Z,3.99
2016-05-22T12:11:25.957Z,4.79
2016-05-22T12:12:26.210Z,4.58
2016-05-22T12:13:26.948Z,4.68
2016-05-22T12:14:26.324Z,4.38
2016-05-22T12:15:26.390Z,4.68
2016-05-22T12:16:26.455Z,4.98
2016-05-22T12:17:26.505Z,4.69
2016-05-22T12:18:26.570Z,4.79
2016-05-22T12:19:26.635Z,5.19
2016-05-22T12:20:26.700Z,4.69
2016-05-22T12:21:26.765Z,4.2
2016-05-22T12:22:26.877Z,3.8
2016-05-22T12:23:26.896Z,3.4
2016-05-22T12:24:26.805Z,3.2
2016-05-22T12:25:27.027Z,3.1
2016-05-22T12:26:26.967Z,3
2016-05-22T12:27:27.157Z,3.5
2016-05-22T12:28:27.690Z,3.3
2016-05-22T12:29:27.334Z,3.69
2016-05-22T12:30:27.352Z,3.79
2016-05-22T12:31:27.401Z,4.68
2016-05-22T12:32:27.513Z,5.18
2016-05-22T12:33:27.548Z,5.78
2016-05-22T12:34:27.612Z,4.99
2016-05-22T12:35:27.678Z,4.59
2016-05-22T12:36:27.756Z,4.09
2016-05-22T12:37:27.686Z,3.59
2016-05-22T12:38:27.944Z,3.79
2016-05-22T12:39:28.028Z,4.68
2016-05-22T12:40:28.097Z,4.88
2016-05-22T12:41:28.174Z,5.18
2016-05-22T12:42:28.246Z,4.78
2016-05-22T12:43:28.162Z,4.79
2016-05-22T12:44:28.390Z,4.49
2016-05-22T12:45:28.478Z,4.08
2016-05-22T12:46:28.531Z,4.19
2016-05-22T12:47:28.600Z,4.49
2016-05-22T12:48:28.683Z,4.68
2016-05-22T12:49:28.767Z,4.48
2016-05-22T12:50:28.787Z,4.58
2016-05-22T12:51:28.854Z,4.58
2016-05-22T12:52:28.951Z,5.08
2016-05-22T12:53:28.970Z,3.79
2016-05-22T12:54:29.052Z,3.59
2016-05-22T12:55:29.149Z,4.28
2016-05-22T12:56:29.184Z,3.89
2016-05-22T12:57:29.249Z,4.08
2016-05-22T12:58:29.190Z,4.68
2016-05-22T12:59:29.396Z,4.68
2016-05-22T13:00:29.431Z,4.97